sensor_id;sensor_type;location;lat;lon;timestamp;temperature;humidity
41557;DHT22;27720;51.992;5.890;2023-02-28T00:01:15;4.10;92.70
41557;DHT22;27720;51.992;5.890;2023-02-28T00:03:57;4.10;92.70
41557;DHT22;27720;51.992;5.890;2023-02-28T00:06:23;4.10;92.80
41557;DHT22;27720;51.992;5.890;2023-02-28T00:08:52;4.20;92.80
41557;DHT22;27720;51.992;5.890;2023-02-28T00:11:20;4.10;92.80
41557;DHT22;27720;51.992;5.890;2023-02-28T00:13:47;4.10;92.90
41557;DHT22;27720;51.992;5.890;2023-02-28T00:16:21;4.20;92.90
41557;DHT22;27720;51.992;5.890;2023-02-28T00:18:48;4.20;92.90
41557;DHT22;27720;51.992;5.890;2023-02-28T00:21:15;4.20;93.00
41557;DHT22;27720;51.992;5.890;2023-02-28T00:23:41;4.20;93.00
41557;DHT22;27720;51.992;5.890;2023-02-28T00:26:07;4.10;93.00
41557;DHT22;27720;51.992;5.890;2023-02-28T00:28:33;4.10;93.10
41557;DHT22;27720;51.992;5.890;2023-02-28T00:30:59;4.10;93.20
41557;DHT22;27720;51.992;5.890;2023-02-28T00:33:26;4.20;93.20
41557;DHT22;27720;51.992;5.890;2023-02-28T00:36:02;4.20;93.20
41557;DHT22;27720;51.992;5.890;2023-02-28T00:38:29;4.20;93.20
41557;DHT22;27720;51.992;5.890;2023-02-28T00:40:55;4.30;93.30
41557;DHT22;27720;51.992;5.890;2023-02-28T00:43:20;4.30;93.50
41557;DHT22;27720;51.992;5.890;2023-02-28T00:45:46;4.30;93.20
41557;DHT22;27720;51.992;5.890;2023-02-28T00:48:12;4.30;93.20
41557;DHT22;27720;51.992;5.890;2023-02-28T00:50:38;4.40;93.20
41557;DHT22;27720;51.992;5.890;2023-02-28T00:53:04;4.40;93.20
41557;DHT22;27720;51.992;5.890;2023-02-28T00:55:29;4.40;93.20
41557;DHT22;27720;51.992;5.890;2023-02-28T00:57:55;4.40;93.50
41557;DHT22;27720;51.992;5.890;2023-02-28T01:00:21;4.40;93.20
41557;DHT22;27720;51.992;5.890;2023-02-28T01:02:49;4.40;93.20
41557;DHT22;27720;51.992;5.890;2023-02-28T01:05:15;4.40;93.20
41557;DHT22;27720;51.992;5.890;2023-02-28T01:07:41;4.40;93.20
41557;DHT22;27720;51.992;5.890;2023-02-28T01:10:10;4.50;93.30
41557;DHT22;27720;51.992;5.890;2023-02-28T01:12:36;4.50;93.20
41557;DHT22;27720;51.992;5.890;2023-02-28T01:15:01;4.40;93.20
41557;DHT22;27720;51.992;5.890;2023-02-28T01:17:27;4.40;93.30
41557;DHT22;27720;51.992;5.890;2023-02-28T01:19:54;4.40;93.30
41557;DHT22;27720;51.992;5.890;2023-02-28T01:22:24;4.40;93.40
41557;DHT22;27720;51.992;5.890;2023-02-28T01:24:50;4.30;93.40
41557;DHT22;27720;51.992;5.890;2023-02-28T01:27:16;4.30;93.40
41557;DHT22;27720;51.992;5.890;2023-02-28T01:29:41;4.30;93.50
41557;DHT22;27720;51.992;5.890;2023-02-28T01:32:08;4.30;93.50
41557;DHT22;27720;51.992;5.890;2023-02-28T01:34:34;4.30;93.50
41557;DHT22;27720;51.992;5.890;2023-02-28T01:37:03;4.30;93.50
41557;DHT22;27720;51.992;5.890;2023-02-28T01:39:29;4.40;93.60
41557;DHT22;27720;51.992;5.890;2023-02-28T01:41:55;4.40;93.50
41557;DHT22;27720;51.992;5.890;2023-02-28T01:47:32;4.40;93.50
41557;DHT22;27720;51.992;5.890;2023-02-28T01:49:59;4.40;93.60
41557;DHT22;27720;51.992;5.890;2023-02-28T01:52:27;4.40;93.60
41557;DHT22;27720;51.992;5.890;2023-02-28T01:54:55;4.40;93.60
41557;DHT22;27720;51.992;5.890;2023-02-28T01:57:25;4.40;93.60
41557;DHT22;27720;51.992;5.890;2023-02-28T02:00:00;4.50;93.70
41557;DHT22;27720;51.992;5.890;2023-02-28T02:02:38;4.50;93.70
41557;DHT22;27720;51.992;5.890;2023-02-28T02:05:10;4.50;93.70
41557;DHT22;27720;51.992;5.890;2023-02-28T02:07:38;4.50;93.60
41557;DHT22;27720;51.992;5.890;2023-02-28T02:10:18;4.50;93.70
41557;DHT22;27720;51.992;5.890;2023-02-28T02:15:36;4.50;93.70
41557;DHT22;27720;51.992;5.890;2023-02-28T02:20:54;4.50;93.80
41557;DHT22;27720;51.992;5.890;2023-02-28T02:23:58;4.50;93.80
41557;DHT22;27720;51.992;5.890;2023-02-28T02:32:28;4.50;93.80
41557;DHT22;27720;51.992;5.890;2023-02-28T02:35:27;4.40;93.90
41557;DHT22;27720;51.992;5.890;2023-02-28T02:40:23;4.40;94.00
41557;DHT22;27720;51.992;5.890;2023-02-28T02:43:19;4.40;94.00
41557;DHT22;27720;51.992;5.890;2023-02-28T02:45:53;4.40;93.80
41557;DHT22;27720;51.992;5.890;2023-02-28T02:48:24;4.40;93.90
41557;DHT22;27720;51.992;5.890;2023-02-28T02:50:54;4.50;93.90
41557;DHT22;27720;51.992;5.890;2023-02-28T02:53:29;4.40;93.80
41557;DHT22;27720;51.992;5.890;2023-02-28T02:56:00;4.50;93.70
41557;DHT22;27720;51.992;5.890;2023-02-28T02:58:30;4.50;93.70
41557;DHT22;27720;51.992;5.890;2023-02-28T03:01:00;4.50;93.60
41557;DHT22;27720;51.992;5.890;2023-02-28T03:03:28;4.50;93.60
41557;DHT22;27720;51.992;5.890;2023-02-28T03:05:59;4.50;93.50
41557;DHT22;27720;51.992;5.890;2023-02-28T03:08:27;4.50;93.50
41557;DHT22;27720;51.992;5.890;2023-02-28T03:11:06;4.50;93.40
41557;DHT22;27720;51.992;5.890;2023-02-28T03:25:12;4.50;93.20
41557;DHT22;27720;51.992;5.890;2023-02-28T03:27:54;4.50;93.10
41557;DHT22;27720;51.992;5.890;2023-02-28T03:33:13;4.50;93.00
41557;DHT22;27720;51.992;5.890;2023-02-28T03:35:45;4.50;93.00
41557;DHT22;27720;51.992;5.890;2023-02-28T03:38:38;4.50;93.30
41557;DHT22;27720;51.992;5.890;2023-02-28T03:41:15;4.50;92.90
41557;DHT22;27720;51.992;5.890;2023-02-28T03:43:46;4.50;92.90
41557;DHT22;27720;51.992;5.890;2023-02-28T03:46:18;4.50;92.80
41557;DHT22;27720;51.992;5.890;2023-02-28T03:48:55;4.50;93.10
41557;DHT22;27720;51.992;5.890;2023-02-28T03:51:24;4.50;92.70
41557;DHT22;27720;51.992;5.890;2023-02-28T03:53:54;4.50;92.70
41557;DHT22;27720;51.992;5.890;2023-02-28T03:56:22;4.50;92.60
41557;DHT22;27720;51.992;5.890;2023-02-28T03:59:14;4.50;92.50
41557;DHT22;27720;51.992;5.890;2023-02-28T04:01:43;4.50;92.50
41557;DHT22;27720;51.992;5.890;2023-02-28T04:04:10;4.50;92.50
41557;DHT22;27720;51.992;5.890;2023-02-28T04:06:37;4.50;92.40
41557;DHT22;27720;51.992;5.890;2023-02-28T04:09:04;4.50;92.30
41557;DHT22;27720;51.992;5.890;2023-02-28T04:11:51;4.50;92.20
41557;DHT22;27720;51.992;5.890;2023-02-28T04:14:18;4.50;92.00
41557;DHT22;27720;51.992;5.890;2023-02-28T04:16:44;4.50;92.10
41557;DHT22;27720;51.992;5.890;2023-02-28T04:19:11;4.50;92.00
41557;DHT22;27720;51.992;5.890;2023-02-28T04:21:40;4.60;91.90
41557;DHT22;27720;51.992;5.890;2023-02-28T04:24:07;4.60;91.90
41557;DHT22;27720;51.992;5.890;2023-02-28T04:26:36;4.60;91.90
41557;DHT22;27720;51.992;5.890;2023-02-28T04:29:04;4.60;91.90
41557;DHT22;27720;51.992;5.890;2023-02-28T04:31:31;4.60;91.80
41557;DHT22;27720;51.992;5.890;2023-02-28T04:33:57;4.60;92.00
41557;DHT22;27720;51.992;5.890;2023-02-28T04:36:23;4.60;91.70
41557;DHT22;27720;51.992;5.890;2023-02-28T04:38:52;4.50;92.00
41557;DHT22;27720;51.992;5.890;2023-02-28T04:41:17;4.50;91.70
41557;DHT22;27720;51.992;5.890;2023-02-28T04:43:46;4.50;91.70
41557;DHT22;27720;51.992;5.890;2023-02-28T04:46:12;4.50;91.70
41557;DHT22;27720;51.992;5.890;2023-02-28T04:48:39;4.40;91.70
41557;DHT22;27720;51.992;5.890;2023-02-28T04:51:07;4.40;91.80
41557;DHT22;27720;51.992;5.890;2023-02-28T04:53:35;4.40;91.80
41557;DHT22;27720;51.992;5.890;2023-02-28T04:56:01;4.40;91.80
41557;DHT22;27720;51.992;5.890;2023-02-28T04:58:27;4.30;91.80
41557;DHT22;27720;51.992;5.890;2023-02-28T05:00:54;4.30;91.90
41557;DHT22;27720;51.992;5.890;2023-02-28T05:03:20;4.30;91.90
41557;DHT22;27720;51.992;5.890;2023-02-28T05:05:47;4.30;91.90
41557;DHT22;27720;51.992;5.890;2023-02-28T05:08:13;4.30;91.90
41557;DHT22;27720;51.992;5.890;2023-02-28T05:10:39;4.20;91.90
41557;DHT22;27720;51.992;5.890;2023-02-28T05:13:08;4.20;92.00
41557;DHT22;27720;51.992;5.890;2023-02-28T05:15:34;4.20;92.00
41557;DHT22;27720;51.992;5.890;2023-02-28T05:18:03;4.20;92.10
41557;DHT22;27720;51.992;5.890;2023-02-28T05:20:28;4.20;92.00
41557;DHT22;27720;51.992;5.890;2023-02-28T05:22:54;4.20;92.10
41557;DHT22;27720;51.992;5.890;2023-02-28T05:25:21;4.20;92.10
41557;DHT22;27720;51.992;5.890;2023-02-28T05:27:49;4.20;92.10
41557;DHT22;27720;51.992;5.890;2023-02-28T05:30:16;4.20;92.10
41557;DHT22;27720;51.992;5.890;2023-02-28T05:32:42;4.20;92.10
41557;DHT22;27720;51.992;5.890;2023-02-28T05:35:11;4.10;92.10
41557;DHT22;27720;51.992;5.890;2023-02-28T05:37:38;4.20;92.20
41557;DHT22;27720;51.992;5.890;2023-02-28T05:40:05;4.20;92.10
41557;DHT22;27720;51.992;5.890;2023-02-28T05:42:37;4.10;92.10
41557;DHT22;27720;51.992;5.890;2023-02-28T05:45:04;4.10;92.20
41557;DHT22;27720;51.992;5.890;2023-02-28T05:47:36;4.10;92.30
41557;DHT22;27720;51.992;5.890;2023-02-28T05:50:02;4.10;92.30
41557;DHT22;27720;51.992;5.890;2023-02-28T05:52:29;4.10;92.30
41557;DHT22;27720;51.992;5.890;2023-02-28T05:54:56;4.20;92.30
41557;DHT22;27720;51.992;5.890;2023-02-28T05:57:22;4.10;92.30
41557;DHT22;27720;51.992;5.890;2023-02-28T05:59:48;4.20;92.30
41557;DHT22;27720;51.992;5.890;2023-02-28T06:02:16;4.20;92.20
41557;DHT22;27720;51.992;5.890;2023-02-28T06:04:43;4.20;92.20
41557;DHT22;27720;51.992;5.890;2023-02-28T06:07:09;4.20;92.30
41557;DHT22;27720;51.992;5.890;2023-02-28T06:09:35;4.20;92.30
41557;DHT22;27720;51.992;5.890;2023-02-28T06:12:03;4.20;92.70
41557;DHT22;27720;51.992;5.890;2023-02-28T06:14:31;4.20;92.40
41557;DHT22;27720;51.992;5.890;2023-02-28T06:16:58;4.20;92.40
41557;DHT22;27720;51.992;5.890;2023-02-28T06:19:24;4.20;92.70
41557;DHT22;27720;51.992;5.890;2023-02-28T06:21:52;4.20;92.50
41557;DHT22;27720;51.992;5.890;2023-02-28T06:24:20;4.20;92.50
41557;DHT22;27720;51.992;5.890;2023-02-28T06:26:46;4.20;92.50
41557;DHT22;27720;51.992;5.890;2023-02-28T06:29:12;4.20;92.50
41557;DHT22;27720;51.992;5.890;2023-02-28T06:31:38;4.30;92.50
41557;DHT22;27720;51.992;5.890;2023-02-28T06:34:04;4.30;92.50
41557;DHT22;27720;51.992;5.890;2023-02-28T06:36:30;4.30;92.40
41557;DHT22;27720;51.992;5.890;2023-02-28T06:38:56;4.30;92.40
41557;DHT22;27720;51.992;5.890;2023-02-28T06:41:24;4.30;92.40
41557;DHT22;27720;51.992;5.890;2023-02-28T06:43:51;4.30;92.70
41557;DHT22;27720;51.992;5.890;2023-02-28T06:46:20;4.30;92.40
41557;DHT22;27720;51.992;5.890;2023-02-28T06:48:46;4.30;92.40
41557;DHT22;27720;51.992;5.890;2023-02-28T06:51:18;4.30;92.40
41557;DHT22;27720;51.992;5.890;2023-02-28T06:53:47;4.40;92.30
41557;DHT22;27720;51.992;5.890;2023-02-28T06:56:15;4.40;92.30
41557;DHT22;27720;51.992;5.890;2023-02-28T06:58:41;4.40;92.20
41557;DHT22;27720;51.992;5.890;2023-02-28T07:01:08;4.40;92.00
41557;DHT22;27720;51.992;5.890;2023-02-28T07:03:35;4.40;92.00
41557;DHT22;27720;51.992;5.890;2023-02-28T07:06:01;4.40;91.90
41557;DHT22;27720;51.992;5.890;2023-02-28T07:08:28;4.40;91.80
41557;DHT22;27720;51.992;5.890;2023-02-28T07:10:57;4.40;91.80
41557;DHT22;27720;51.992;5.890;2023-02-28T07:13:24;4.40;91.70
41557;DHT22;27720;51.992;5.890;2023-02-28T07:16:02;4.40;91.60
41557;DHT22;27720;51.992;5.890;2023-02-28T07:18:28;4.50;91.50
41557;DHT22;27720;51.992;5.890;2023-02-28T07:20:57;4.40;91.40
41557;DHT22;27720;51.992;5.890;2023-02-28T07:23:23;4.40;91.20
41557;DHT22;27720;51.992;5.890;2023-02-28T07:25:50;4.50;91.20
41557;DHT22;27720;51.992;5.890;2023-02-28T07:28:16;4.50;91.30
41557;DHT22;27720;51.992;5.890;2023-02-28T07:30:42;4.40;90.90
41557;DHT22;27720;51.992;5.890;2023-02-28T07:33:09;4.50;90.80
41557;DHT22;27720;51.992;5.890;2023-02-28T07:35:35;4.50;90.80
41557;DHT22;27720;51.992;5.890;2023-02-28T07:38:01;4.50;90.70
41557;DHT22;27720;51.992;5.890;2023-02-28T07:40:28;4.50;90.60
41557;DHT22;27720;51.992;5.890;2023-02-28T07:42:54;4.50;90.50
41557;DHT22;27720;51.992;5.890;2023-02-28T07:45:21;4.50;90.50
41557;DHT22;27720;51.992;5.890;2023-02-28T07:47:46;4.50;90.40
41557;DHT22;27720;51.992;5.890;2023-02-28T07:50:14;4.60;90.30
41557;DHT22;27720;51.992;5.890;2023-02-28T07:52:41;4.60;90.30
41557;DHT22;27720;51.992;5.890;2023-02-28T07:55:08;4.50;90.10
41557;DHT22;27720;51.992;5.890;2023-02-28T07:57:37;4.50;90.00
41557;DHT22;27720;51.992;5.890;2023-02-28T08:00:06;4.50;90.10
41557;DHT22;27720;51.992;5.890;2023-02-28T08:02:37;4.60;89.80
41557;DHT22;27720;51.992;5.890;2023-02-28T08:05:03;4.60;89.40
41557;DHT22;27720;51.992;5.890;2023-02-28T08:10:06;4.70;89.20
41557;DHT22;27720;51.992;5.890;2023-02-28T08:12:32;4.70;88.10
41557;DHT22;27720;51.992;5.890;2023-02-28T08:14:58;4.70;85.50
41557;DHT22;27720;51.992;5.890;2023-02-28T08:17:24;4.70;85.30
41557;DHT22;27720;51.992;5.890;2023-02-28T08:19:50;4.70;85.20
41557;DHT22;27720;51.992;5.890;2023-02-28T08:22:15;4.70;84.80
41557;DHT22;27720;51.992;5.890;2023-02-28T08:24:42;4.80;84.00
41557;DHT22;27720;51.992;5.890;2023-02-28T08:27:09;4.80;83.50
41557;DHT22;27720;51.992;5.890;2023-02-28T08:29:37;4.90;82.60
41557;DHT22;27720;51.992;5.890;2023-02-28T08:32:06;4.90;82.20
41557;DHT22;27720;51.992;5.890;2023-02-28T08:34:32;4.90;79.30
41557;DHT22;27720;51.992;5.890;2023-02-28T08:36:58;4.90;79.40
41557;DHT22;27720;51.992;5.890;2023-02-28T08:39:24;5.00;78.30
41557;DHT22;27720;51.992;5.890;2023-02-28T08:41:53;5.00;78.50
41557;DHT22;27720;51.992;5.890;2023-02-28T08:44:19;5.10;77.70
41557;DHT22;27720;51.992;5.890;2023-02-28T08:46:44;5.10;76.30
41557;DHT22;27720;51.992;5.890;2023-02-28T08:49:10;5.10;74.80
41557;DHT22;27720;51.992;5.890;2023-02-28T08:51:38;5.10;73.50
41557;DHT22;27720;51.992;5.890;2023-02-28T08:54:04;5.20;74.60
41557;DHT22;27720;51.992;5.890;2023-02-28T08:56:33;5.20;75.20
41557;DHT22;27720;51.992;5.890;2023-02-28T08:59:01;5.30;74.50
41557;DHT22;27720;51.992;5.890;2023-02-28T09:01:30;5.40;74.00
41557;DHT22;27720;51.992;5.890;2023-02-28T09:03:57;5.50;74.50
41557;DHT22;27720;51.992;5.890;2023-02-28T09:06:27;5.50;74.20
41557;DHT22;27720;51.992;5.890;2023-02-28T09:08:52;5.60;74.00
41557;DHT22;27720;51.992;5.890;2023-02-28T09:11:20;5.60;73.90
41557;DHT22;27720;51.992;5.890;2023-02-28T09:13:49;5.70;73.90
41557;DHT22;27720;51.992;5.890;2023-02-28T09:16:16;5.80;73.40
41557;DHT22;27720;51.992;5.890;2023-02-28T09:18:42;5.80;71.20
41557;DHT22;27720;51.992;5.890;2023-02-28T09:21:14;5.90;71.70
41557;DHT22;27720;51.992;5.890;2023-02-28T09:23:41;5.90;69.60
41557;DHT22;27720;51.992;5.890;2023-02-28T09:26:11;5.90;69.40
41557;DHT22;27720;51.992;5.890;2023-02-28T09:28:38;5.90;68.00
41557;DHT22;27720;51.992;5.890;2023-02-28T09:31:10;5.90;67.60
41557;DHT22;27720;51.992;5.890;2023-02-28T09:33:37;6.00;68.90
41557;DHT22;27720;51.992;5.890;2023-02-28T09:36:03;6.10;68.70
41557;DHT22;27720;51.992;5.890;2023-02-28T09:38:29;6.20;68.10
41557;DHT22;27720;51.992;5.890;2023-02-28T09:40:58;6.20;67.70
41557;DHT22;27720;51.992;5.890;2023-02-28T09:43:29;6.30;67.80
41557;DHT22;27720;51.992;5.890;2023-02-28T09:48:50;6.30;65.70
41557;DHT22;27720;51.992;5.890;2023-02-28T09:54:14;6.40;65.70
41557;DHT22;27720;51.992;5.890;2023-02-28T09:56:50;6.40;66.10
41557;DHT22;27720;51.992;5.890;2023-02-28T10:05:24;6.80;66.70
41557;DHT22;27720;51.992;5.890;2023-02-28T10:10:55;6.90;65.20
41557;DHT22;27720;51.992;5.890;2023-02-28T10:13:35;7.00;64.70
41557;DHT22;27720;51.992;5.890;2023-02-28T10:16:16;7.00;62.20
41557;DHT22;27720;51.992;5.890;2023-02-28T10:18:49;7.00;62.20
41557;DHT22;27720;51.992;5.890;2023-02-28T10:21:41;7.10;61.60
41557;DHT22;27720;51.992;5.890;2023-02-28T10:24:23;7.10;62.00
41557;DHT22;27720;51.992;5.890;2023-02-28T10:27:16;7.20;62.40
41557;DHT22;27720;51.992;5.890;2023-02-28T10:29:54;7.20;61.50
41557;DHT22;27720;51.992;5.890;2023-02-28T10:32:24;7.20;60.40
41557;DHT22;27720;51.992;5.890;2023-02-28T10:35:09;7.30;60.50
41557;DHT22;27720;51.992;5.890;2023-02-28T10:37:46;7.40;58.60
41557;DHT22;27720;51.992;5.890;2023-02-28T10:43:00;7.60;59.90
41557;DHT22;27720;51.992;5.890;2023-02-28T10:45:32;7.70;59.00
41557;DHT22;27720;51.992;5.890;2023-02-28T10:48:02;7.70;58.20
41557;DHT22;27720;51.992;5.890;2023-02-28T10:56:15;7.90;57.50
41557;DHT22;27720;51.992;5.890;2023-02-28T10:58:58;7.80;57.80
41557;DHT22;27720;51.992;5.890;2023-02-28T11:04:16;8.00;58.00
41557;DHT22;27720;51.992;5.890;2023-02-28T11:06:42;8.00;58.40
41557;DHT22;27720;51.992;5.890;2023-02-28T11:09:36;8.10;58.20
41557;DHT22;27720;51.992;5.890;2023-02-28T11:12:07;8.20;58.10
41557;DHT22;27720;51.992;5.890;2023-02-28T11:14:49;8.20;58.20
41557;DHT22;27720;51.992;5.890;2023-02-28T11:17:30;8.30;58.20
41557;DHT22;27720;51.992;5.890;2023-02-28T11:19:59;8.40;58.50
41557;DHT22;27720;51.992;5.890;2023-02-28T11:22:32;8.50;58.40
41557;DHT22;27720;51.992;5.890;2023-02-28T11:24:59;8.60;58.20
41557;DHT22;27720;51.992;5.890;2023-02-28T11:30:00;8.60;56.40
41557;DHT22;27720;51.992;5.890;2023-02-28T11:32:30;8.60;56.90
41557;DHT22;27720;51.992;5.890;2023-02-28T11:37:38;8.80;56.80
41557;DHT22;27720;51.992;5.890;2023-02-28T11:49:02;9.00;57.00
41557;DHT22;27720;51.992;5.890;2023-02-28T11:55:05;9.10;55.50
41557;DHT22;27720;51.992;5.890;2023-02-28T12:00:22;9.20;56.40
41557;DHT22;27720;51.992;5.890;2023-02-28T12:11:13;9.60;55.40
41557;DHT22;27720;51.992;5.890;2023-02-28T12:16:34;9.60;54.30
41557;DHT22;27720;51.992;5.890;2023-02-28T12:19:21;9.60;54.20
41557;DHT22;27720;51.992;5.890;2023-02-28T12:27:35;9.80;54.00
41557;DHT22;27720;51.992;5.890;2023-02-28T12:30:08;9.80;54.00
41557;DHT22;27720;51.992;5.890;2023-02-28T12:32:46;9.80;53.40
41557;DHT22;27720;51.992;5.890;2023-02-28T12:35:18;9.90;54.20
41557;DHT22;27720;51.992;5.890;2023-02-28T12:38:09;10.00;54.30
41557;DHT22;27720;51.992;5.890;2023-02-28T12:41:02;10.20;54.70
41557;DHT22;27720;51.992;5.890;2023-02-28T12:43:38;10.20;53.30
41557;DHT22;27720;51.992;5.890;2023-02-28T12:49:06;10.20;52.90
41557;DHT22;27720;51.992;5.890;2023-02-28T12:51:37;10.20;52.60
41557;DHT22;27720;51.992;5.890;2023-02-28T12:54:12;10.30;53.30
41557;DHT22;27720;51.992;5.890;2023-02-28T12:59:33;10.50;53.10
41557;DHT22;27720;51.992;5.890;2023-02-28T13:05:46;10.40;49.20
41557;DHT22;27720;51.992;5.890;2023-02-28T13:14:23;10.40;50.90
41557;DHT22;27720;51.992;5.890;2023-02-28T13:17:01;10.40;51.20
41557;DHT22;27720;51.992;5.890;2023-02-28T13:19:34;10.50;51.60
41557;DHT22;27720;51.992;5.890;2023-02-28T13:22:01;10.60;51.40
41557;DHT22;27720;51.992;5.890;2023-02-28T13:24:44;10.70;51.40
41557;DHT22;27720;51.992;5.890;2023-02-28T13:29:43;10.70;51.00
41557;DHT22;27720;51.992;5.890;2023-02-28T13:34:38;10.80;50.70
41557;DHT22;27720;51.992;5.890;2023-02-28T13:40:28;10.80;50.20
41557;DHT22;27720;51.992;5.890;2023-02-28T13:42:52;10.70;49.70
41557;DHT22;27720;51.992;5.890;2023-02-28T13:47:54;10.50;49.80
41557;DHT22;27720;51.992;5.890;2023-02-28T13:50:27;10.50;50.20
41557;DHT22;27720;51.992;5.890;2023-02-28T14:01:27;10.60;50.30
41557;DHT22;27720;51.992;5.890;2023-02-28T14:06:54;10.60;51.10
41557;DHT22;27720;51.992;5.890;2023-02-28T14:10:04;10.60;51.00
41557;DHT22;27720;51.992;5.890;2023-02-28T14:15:46;10.50;49.90
41557;DHT22;27720;51.992;5.890;2023-02-28T14:18:37;10.40;50.60
41557;DHT22;27720;51.992;5.890;2023-02-28T14:32:28;9.80;50.80
41557;DHT22;27720;51.992;5.890;2023-02-28T14:37:41;9.60;51.10
41557;DHT22;27720;51.992;5.890;2023-02-28T14:40:17;9.60;51.70
41557;DHT22;27720;51.992;5.890;2023-02-28T14:42:55;9.50;51.60
41557;DHT22;27720;51.992;5.890;2023-02-28T14:45:22;9.50;51.90
41557;DHT22;27720;51.992;5.890;2023-02-28T14:47:55;9.40;52.00
41557;DHT22;27720;51.992;5.890;2023-02-28T14:50:30;9.40;52.20
41557;DHT22;27720;51.992;5.890;2023-02-28T14:52:57;9.40;52.40
41557;DHT22;27720;51.992;5.890;2023-02-28T14:55:34;9.30;51.80
41557;DHT22;27720;51.992;5.890;2023-02-28T14:58:05;9.20;51.60
41557;DHT22;27720;51.992;5.890;2023-02-28T15:00:35;9.10;51.80
41557;DHT22;27720;51.992;5.890;2023-02-28T15:03:35;9.10;52.10
41557;DHT22;27720;51.992;5.890;2023-02-28T15:06:05;9.10;52.30
41557;DHT22;27720;51.992;5.890;2023-02-28T15:08:32;9.00;52.20
41557;DHT22;27720;51.992;5.890;2023-02-28T15:11:05;9.00;52.30
41557;DHT22;27720;51.992;5.890;2023-02-28T15:16:20;8.90;52.30
41557;DHT22;27720;51.992;5.890;2023-02-28T15:21:26;8.80;52.80
41557;DHT22;27720;51.992;5.890;2023-02-28T15:24:07;8.70;52.20
41557;DHT22;27720;51.992;5.890;2023-02-28T15:26:39;8.80;52.90
41557;DHT22;27720;51.992;5.890;2023-02-28T15:29:19;8.80;53.30
41557;DHT22;27720;51.992;5.890;2023-02-28T15:32:06;8.90;53.30
41557;DHT22;27720;51.992;5.890;2023-02-28T15:34:38;8.80;53.50
41557;DHT22;27720;51.992;5.890;2023-02-28T15:39:53;8.70;53.10
41557;DHT22;27720;51.992;5.890;2023-02-28T15:42:22;8.60;53.40
41557;DHT22;27720;51.992;5.890;2023-02-28T15:44:50;8.60;53.30
41557;DHT22;27720;51.992;5.890;2023-02-28T15:47:25;8.60;53.30
41557;DHT22;27720;51.992;5.890;2023-02-28T15:49:57;8.60;53.60
41557;DHT22;27720;51.992;5.890;2023-02-28T15:52:47;8.60;53.90
41557;DHT22;27720;51.992;5.890;2023-02-28T15:55:24;8.60;53.90
41557;DHT22;27720;51.992;5.890;2023-02-28T15:58:01;8.60;54.20
41557;DHT22;27720;51.992;5.890;2023-02-28T16:00:29;8.60;54.20
41557;DHT22;27720;51.992;5.890;2023-02-28T16:02:55;8.50;54.10
41557;DHT22;27720;51.992;5.890;2023-02-28T16:05:28;8.50;54.10
41557;DHT22;27720;51.992;5.890;2023-02-28T16:08:20;8.40;54.30
41557;DHT22;27720;51.992;5.890;2023-02-28T16:10:46;8.40;54.00
41557;DHT22;27720;51.992;5.890;2023-02-28T16:13:12;8.30;54.30
41557;DHT22;27720;51.992;5.890;2023-02-28T16:15:43;8.40;55.30
41557;DHT22;27720;51.992;5.890;2023-02-28T16:18:14;8.40;54.80
41557;DHT22;27720;51.992;5.890;2023-02-28T16:20:42;8.30;54.70
41557;DHT22;27720;51.992;5.890;2023-02-28T16:23:12;8.30;54.70
41557;DHT22;27720;51.992;5.890;2023-02-28T16:25:40;8.30;54.90
41557;DHT22;27720;51.992;5.890;2023-02-28T16:28:20;8.30;55.20
41557;DHT22;27720;51.992;5.890;2023-02-28T16:30:51;8.30;55.20
41557;DHT22;27720;51.992;5.890;2023-02-28T16:33:20;8.30;56.00
41557;DHT22;27720;51.992;5.890;2023-02-28T16:35:46;8.20;55.30
41557;DHT22;27720;51.992;5.890;2023-02-28T16:38:12;8.20;55.50
41557;DHT22;27720;51.992;5.890;2023-02-28T16:40:38;8.20;55.80
41557;DHT22;27720;51.992;5.890;2023-02-28T16:43:08;8.20;55.80
41557;DHT22;27720;51.992;5.890;2023-02-28T16:45:35;8.20;55.90
41557;DHT22;27720;51.992;5.890;2023-02-28T16:48:01;8.10;56.00
41557;DHT22;27720;51.992;5.890;2023-02-28T16:50:29;8.10;56.40
41557;DHT22;27720;51.992;5.890;2023-02-28T16:52:55;8.10;56.50
41557;DHT22;27720;51.992;5.890;2023-02-28T16:55:25;8.10;56.80
41557;DHT22;27720;51.992;5.890;2023-02-28T16:57:59;8.00;56.90
41557;DHT22;27720;51.992;5.890;2023-02-28T17:00:30;8.00;57.10
41557;DHT22;27720;51.992;5.890;2023-02-28T17:02:57;8.00;57.30
41557;DHT22;27720;51.992;5.890;2023-02-28T17:05:25;7.90;58.30
41557;DHT22;27720;51.992;5.890;2023-02-28T17:07:51;7.90;58.10
41557;DHT22;27720;51.992;5.890;2023-02-28T17:10:23;7.90;58.40
41557;DHT22;27720;51.992;5.890;2023-02-28T17:12:49;7.90;58.60
41557;DHT22;27720;51.992;5.890;2023-02-28T17:15:16;7.80;58.70
41557;DHT22;27720;51.992;5.890;2023-02-28T17:17:47;7.80;58.80
41557;DHT22;27720;51.992;5.890;2023-02-28T17:20:18;7.80;59.10
41557;DHT22;27720;51.992;5.890;2023-02-28T17:22:51;7.80;59.30
41557;DHT22;27720;51.992;5.890;2023-02-28T17:25:20;7.80;59.60
41557;DHT22;27720;51.992;5.890;2023-02-28T17:27:47;7.70;59.90
41557;DHT22;27720;51.992;5.890;2023-02-28T17:30:24;7.70;60.10
41557;DHT22;27720;51.992;5.890;2023-02-28T17:32:50;7.70;60.30
41557;DHT22;27720;51.992;5.890;2023-02-28T17:35:16;7.60;60.50
41557;DHT22;27720;51.992;5.890;2023-02-28T17:37:45;7.60;60.90
41557;DHT22;27720;51.992;5.890;2023-02-28T17:40:20;7.50;61.10
41557;DHT22;27720;51.992;5.890;2023-02-28T17:42:46;7.50;61.40
41557;DHT22;27720;51.992;5.890;2023-02-28T17:45:13;7.50;61.60
41557;DHT22;27720;51.992;5.890;2023-02-28T17:47:39;7.40;61.70
41557;DHT22;27720;51.992;5.890;2023-02-28T17:50:16;7.40;61.90
41557;DHT22;27720;51.992;5.890;2023-02-28T17:52:42;7.30;61.70
41557;DHT22;27720;51.992;5.890;2023-02-28T17:55:09;7.20;61.70
41557;DHT22;27720;51.992;5.890;2023-02-28T17:57:35;7.20;61.60
41557;DHT22;27720;51.992;5.890;2023-02-28T18:00:00;7.10;61.70
41557;DHT22;27720;51.992;5.890;2023-02-28T18:05:55;7.00;61.70
41557;DHT22;27720;51.992;5.890;2023-02-28T18:08:22;6.90;61.70
41557;DHT22;27720;51.992;5.890;2023-02-28T18:10:48;6.90;61.70
41557;DHT22;27720;51.992;5.890;2023-02-28T18:13:13;6.90;61.60
41557;DHT22;27720;51.992;5.890;2023-02-28T18:15:39;6.80;61.60
41557;DHT22;27720;51.992;5.890;2023-02-28T18:18:05;6.80;61.80
41557;DHT22;27720;51.992;5.890;2023-02-28T18:20:33;6.80;61.90
41557;DHT22;27720;51.992;5.890;2023-02-28T18:22:59;6.80;62.30
41557;DHT22;27720;51.992;5.890;2023-02-28T18:25:25;6.80;62.90
41557;DHT22;27720;51.992;5.890;2023-02-28T18:27:51;6.80;63.10
41557;DHT22;27720;51.992;5.890;2023-02-28T18:30:27;6.80;63.40
41557;DHT22;27720;51.992;5.890;2023-02-28T18:33:02;6.80;63.70
41557;DHT22;27720;51.992;5.890;2023-02-28T18:35:29;6.70;63.90
41557;DHT22;27720;51.992;5.890;2023-02-28T18:38:13;6.70;63.80
41557;DHT22;27720;51.992;5.890;2023-02-28T18:40:40;6.60;63.80
41557;DHT22;27720;51.992;5.890;2023-02-28T18:43:07;6.60;64.10
41557;DHT22;27720;51.992;5.890;2023-02-28T18:46:06;6.60;64.10
41557;DHT22;27720;51.992;5.890;2023-02-28T18:48:35;6.60;64.70